Kingman, AZ

11:55 AM MST on January 22, 2017 (GMT -0700)
Southeast Kingman | | Change Station
Active Advisory: Wind Advisory

Elev 3584 ft 35.20 °N, 114.00 °W | Updated 32 seconds ago

Rain
Rain
41.7 °F
Feels Like 37 °F
N
8.0
Wind Variable Wind from SSW
Gusts 15.0 mph

Today
High -- | Low -- °F
--% Chance of Precip.
Yesterday
High -- | Low -- °F
Precip. -- in
Pressure 30.09 in
Visibility -9999.0 miles
Clouds
Windchill 37 °F
Dew Point 37 °F
Humidity 83%
Rainfall 0.02 in
Snow Depth Not available.
7:41 AM 5:54 PM
Waning Crescent, 24% visible
METAR KIGM 221851Z AUTO 19009G15KT -RA 06/02 A3014 RMK AO2 RAB48 SLP188 P0003 T00560022 $
Pressure 30.09 in
Visibility -9999.0 miles
Clouds
Windchill 37 °F
Dew Point 37 °F
Humidity 83%
Rainfall 0.02 in
Snow Depth Not available.
7:41 AM 5:54 PM
Waning Crescent, 24% visible
METAR KIGM 221851Z AUTO 19009G15KT -RA 06/02 A3014 RMK AO2 RAB48 SLP188 P0003 T00560022 $

Get Your Daily Forecast Email!

Thanks for signing up!

Be on the lookout for a verification email in your inbox.

You'll start receiving the daily forecast at 8 AM.

×

10-Day Weather Forecast

Almanac

Astronomy

Jan. 22, 2017 Rise Set
Actual Time
Civil Twilight
Nautical Twilight
Astronomical Twilight
Moon
Length of Visible Light
Length of Day
Tomorrow will be .
, % of the Moon is Illuminated

Today's Extremes

State Highs State Lows

Community

WunderPhotos

Upload Photos

1,962,540 photos uploaded!

WunderBlog® & News

Nearby

Air Quality

  Air Quality AQ Index Pollutant
Not available.

Snow Depth

Station Depth Elevation

Earthquake Activity

City Distance Mag. Time & Date
Minimum magnitude displayed is 2.5.

Coastal Water Temperatures

Place Temperature

Stations

Nearby Weather Stations

Station Location Temp. Windchill Dew Point Humidity Wind Precip. Elev Updated Type
                   

Watches & Warnings

Wind Advisory
Issued: 3:54 AM MST Jan. 22, 2017 – National Weather Service

... Wind Advisory in effect from 8 am this morning to 5 PM MST
Monday...

The National Weather Service in Las Vegas has issued a Wind
Advisory... which is in effect from 8 am this morning to 5 PM MST
Monday.

* Timing... winds are expected to increase by late this morning with
strong winds persisting through Monday morning before diminishing
late Monday afternoon.

* Winds... south to southwest 25 to 35 mph with gusts 35 to 45
mph.

* Impacts... strong winds will create difficult driving
conditions... especially for high-profile vehicles. Loose or
unsecured objects and temporary structures may be blown away or
damaged.

Precautionary/preparedness actions...

Check Road conditions before departing and be prepared for sudden
strong Crosswinds. Use extreme caution on the water and be aware
of wave activity. Secure any loose objects or temporary
structures.